Time;durP1;ratioP1;P1;durP2;ratioP2;P2;SDS_P1;SDS_P2;PMS_P1;PMS_P2;Temp;Humidity;BMP_temperature;BMP_pressure;BME280_temperature;BME280_humidity;BME280_pressure;Samples;Min_cycle;Max_cycle;Signal;HPM_P1;HPM_P2
2022/06/06 00:01:15;;;;;;;18.07;17.17;;;16.70;89.80;;;;;;5039824;28;20554;-71
2022/06/06 00:03:43;;;;;;;17.63;16.83;;;16.70;89.80;;;;;;5032393;28;20554;-68
2022/06/06 00:06:11;;;;;;;17.43;16.53;;;16.70;89.80;;;;;;5041302;28;20485;-68
2022/06/06 00:08:39;;;;;;;18.20;17.20;;;16.70;89.70;;;;;;5042296;28;20901;-66
2022/06/06 00:11:09;;;;;;;19.20;18.00;;;16.70;89.60;;;;;;5041466;28;20474;-68
2022/06/06 00:13:36;;;;;;;19.20;17.93;;;16.70;89.80;;;;;;5041402;28;20480;-68
2022/06/06 00:16:05;;;;;;;18.70;17.70;;;16.60;90.00;;;;;;5035465;28;20471;-68
2022/06/06 00:18:33;;;;;;;18.70;17.70;;;16.60;90.00;;;;;;5032636;28;20546;-68
2022/06/06 00:21:00;;;;;;;18.73;17.63;;;16.60;90.20;;;;;;5045618;28;20528;-68
2022/06/06 00:23:27;;;;;;;18.40;17.50;;;16.60;90.40;;;;;;5036982;28;20567;-72
2022/06/06 00:25:54;;;;;;;18.07;17.17;;;16.60;90.20;;;;;;5027848;28;20982;-71
2022/06/06 00:28:22;;;;;;;17.57;16.67;;;16.60;90.10;;;;;;5028884;28;20460;-71
2022/06/06 00:30:48;;;;;;;17.90;17.00;;;16.70;89.80;;;;;;5028860;28;20981;-72
2022/06/06 00:36:01;;;;;;;18.17;17.17;;;16.60;90.00;;;;;;5041395;28;20625;-71
2022/06/06 00:38:28;;;;;;;18.00;17.10;;;16.60;90.20;;;;;;5031922;28;20833;-72
2022/06/06 00:40:55;;;;;;;18.40;17.23;;;16.60;90.30;;;;;;5033665;28;20538;-71
2022/06/06 00:43:22;;;;;;;18.23;17.03;;;16.50;90.40;;;;;;5038523;28;20540;-71
2022/06/06 00:45:54;;;;;;;18.37;17.30;;;16.60;90.30;;;;;;5038863;28;20854;-70
2022/06/06 00:48:26;;;;;;;18.47;17.40;;;16.60;90.30;;;;;;5041761;28;20463;-70
2022/06/06 00:50:58;;;;;;;18.97;17.73;;;16.60;90.30;;;;;;5027413;28;20539;-70
2022/06/06 00:53:33;;;;;;;18.43;17.43;;;16.50;90.50;;;;;;5029326;28;20486;-70
2022/06/06 00:56:07;;;;;;;17.70;16.50;;;16.50;90.70;;;;;;5033876;28;20489;-71
2022/06/06 00:58:37;;;;;;;17.77;16.57;;;16.50;90.80;;;;;;5032919;28;20452;-70
2022/06/06 01:01:05;;;;;;;17.00;16.10;;;16.50;90.80;;;;;;5035100;28;20465;-68
2022/06/06 01:03:36;;;;;;;17.63;16.63;;;16.50;90.70;;;;;;5040788;28;20950;-68
2022/06/06 01:06:05;;;;;;;18.30;17.20;;;16.50;90.60;;;;;;5027161;28;20904;-68
2022/06/06 01:08:35;;;;;;;17.70;16.80;;;16.50;90.50;;;;;;5028622;28;20462;-68
2022/06/06 01:11:02;;;;;;;18.53;17.37;;;16.50;90.60;;;;;;5029182;28;20538;-68
2022/06/06 01:13:30;;;;;;;17.83;16.97;;;16.40;90.80;;;;;;5032251;28;20845;-68
2022/06/06 01:16:11;;;;;;;17.90;17.00;;;16.40;90.90;;;;;;5028773;28;20593;-68
2022/06/06 01:18:50;;;;;;;17.93;16.90;;;16.40;91.00;;;;;;5035586;28;20464;-68
2022/06/06 01:21:53;;;;;;;18.27;17.00;;;16.40;91.10;;;;;;5032529;28;20536;-68
2022/06/06 01:24:49;;;;;;;19.13;17.60;;;16.30;91.30;;;;;;4991143;28;21035;-68
2022/06/06 01:27:38;;;;;;;17.87;16.97;;;16.20;91.90;;;;;;5031976;28;21025;-69
2022/06/06 01:30:10;;;;;;;17.90;16.80;;;16.20;92.10;;;;;;5035978;28;20461;-68
2022/06/06 01:32:42;;;;;;;17.70;16.90;;;16.10;92.20;;;;;;5033157;28;20466;-68
2022/06/06 01:35:09;;;;;;;17.53;16.70;;;16.10;92.20;;;;;;5035276;28;20599;-71
2022/06/06 01:37:39;;;;;;;17.90;16.87;;;16.10;92.20;;;;;;5028672;28;20560;-70
2022/06/06 01:40:10;;;;;;;18.00;16.70;;;16.10;92.20;;;;;;5028883;28;20487;-70
2022/06/06 01:42:43;;;;;;;17.10;16.30;;;16.10;92.30;;;;;;5038229;28;20483;-71
2022/06/06 01:45:20;;;;;;;17.73;16.63;;;16.00;92.40;;;;;;5030707;28;20488;-70
2022/06/06 01:47:51;;;;;;;16.90;16.10;;;16.00;92.50;;;;;;5034247;28;20542;-70
2022/06/06 01:50:20;;;;;;;18.13;17.20;;;16.00;92.50;;;;;;5035220;28;20543;-70
2022/06/06 01:52:53;;;;;;;18.17;17.07;;;16.00;92.50;;;;;;5037988;28;20499;-70
2022/06/06 01:55:21;;;;;;;18.50;17.50;;;15.90;92.60;;;;;;5037336;28;20565;-70
2022/06/06 01:57:49;;;;;;;17.83;16.83;;;15.90;92.80;;;;;;5031101;28;20539;-70
2022/06/06 02:00:18;;;;;;;17.90;17.00;;;15.90;93.00;;;;;;5033464;28;21059;-70
2022/06/06 02:02:45;;;;;;;18.13;17.13;;;15.80;93.10;;;;;;5033832;28;20492;-70
2022/06/06 02:05:13;;;;;;;17.90;16.90;;;15.80;93.20;;;;;;5028944;28;20530;-69
2022/06/06 02:07:40;;;;;;;17.47;16.33;;;15.80;93.10;;;;;;5033277;28;20461;-70
2022/06/06 02:10:09;;;;;;;17.67;16.67;;;15.80;93.00;;;;;;5028235;28;20464;-70
2022/06/06 02:12:37;;;;;;;18.37;17.10;;;15.70;93.20;;;;;;5036881;28;20470;-71
2022/06/06 02:15:05;;;;;;;17.73;16.80;;;15.70;93.40;;;;;;5028892;28;20476;-70
2022/06/06 02:17:34;;;;;;;17.30;16.40;;;15.70;93.40;;;;;;5031099;28;20555;-70
2022/06/06 02:20:04;;;;;;;18.50;17.37;;;15.80;93.30;;;;;;5040270;28;21030;-70
2022/06/06 02:22:31;;;;;;;18.63;17.63;;;15.80;93.40;;;;;;5031772;28;21038;-70
2022/06/06 02:24:58;;;;;;;18.77;16.53;;;15.80;93.20;;;;;;5031291;28;20462;-70
2022/06/06 02:27:25;;;;;;;17.63;16.77;;;15.80;93.10;;;;;;5033441;28;20495;-70
2022/06/06 02:29:52;;;;;;;17.80;16.80;;;15.90;93.10;;;;;;5033628;28;20544;-70
2022/06/06 02:32:19;;;;;;;18.40;17.50;;;15.90;92.90;;;;;;5038186;28;20542;-71
2022/06/06 02:34:47;;;;;;;17.87;16.97;;;15.90;92.50;;;;;;5028768;28;20563;-70
2022/06/06 02:37:14;;;;;;;17.87;16.77;;;15.90;92.60;;;;;;5034917;28;20483;-71
2022/06/06 02:39:42;;;;;;;17.20;16.30;;;15.80;92.80;;;;;;5041713;28;20499;-70
2022/06/06 02:42:09;;;;;;;18.23;17.23;;;15.90;92.80;;;;;;5038991;28;20475;-72
2022/06/06 02:44:36;;;;;;;18.30;17.40;;;15.80;92.80;;;;;;5029908;28;20542;-70
2022/06/06 02:47:04;;;;;;;18.07;17.10;;;15.80;92.80;;;;;;5044059;28;20480;-70
2022/06/06 02:49:33;;;;;;;17.57;16.57;;;15.80;92.90;;;;;;5030181;28;20460;-70
2022/06/06 02:52:01;;;;;;;17.73;16.43;;;15.80;92.90;;;;;;5028705;28;21065;-68
2022/06/06 02:54:29;;;;;;;17.73;16.53;;;15.80;92.90;;;;;;5026863;28;20567;-68
2022/06/06 02:56:56;;;;;;;18.07;16.77;;;15.70;93.20;;;;;;5033650;28;20532;-68
2022/06/06 02:59:25;;;;;;;17.20;16.30;;;15.70;93.50;;;;;;5030820;28;20551;-68
2022/06/06 03:01:52;;;;;;;18.57;17.37;;;15.70;93.60;;;;;;5028199;28;20464;-68
2022/06/06 03:04:21;;;;;;;17.40;16.50;;;15.70;93.50;;;;;;5035519;28;20543;-68
2022/06/06 03:07:18;;;;;;;18.60;17.30;;;15.70;93.50;;;;;;5034637;28;20480;-68
2022/06/06 03:09:56;;;;;;;18.03;17.03;;;15.70;93.30;;;;;;5029838;28;21004;-68
2022/06/06 03:12:37;;;;;;;18.73;16.97;;;15.70;93.00;;;;;;5038149;28;20650;-68
2022/06/06 03:15:22;;;;;;;18.77;17.77;;;15.60;93.20;;;;;;5032003;28;20984;-68
2022/06/06 03:20:54;;;;;;;17.70;16.70;;;15.60;93.40;;;;;;5033846;28;20727;-68
2022/06/06 03:23:31;;;;;;;18.50;17.50;;;15.50;93.40;;;;;;5035447;28;20455;-68
2022/06/06 03:26:07;;;;;;;18.43;17.40;;;15.50;93.70;;;;;;5035229;28;20475;-68
2022/06/06 03:28:43;;;;;;;19.17;17.93;;;15.50;93.60;;;;;;5031128;28;20466;-68
2022/06/06 03:31:27;;;;;;;19.77;18.67;;;15.60;93.20;;;;;;5034954;28;20458;-70
2022/06/06 03:34:03;;;;;;;17.70;16.80;;;15.70;92.80;;;;;;5032629;28;20448;-70
2022/06/06 03:36:35;;;;;;;18.53;17.53;;;15.70;92.70;;;;;;5033871;28;20479;-70
2022/06/06 03:39:16;;;;;;;18.40;17.40;;;15.70;92.80;;;;;;5037591;28;20482;-71
2022/06/06 03:41:52;;;;;;;17.60;16.70;;;15.70;92.50;;;;;;5038210;28;20502;-71
2022/06/06 03:44:30;;;;;;;18.03;16.90;;;15.80;92.50;;;;;;5032121;28;20573;-72
2022/06/06 03:47:06;;;;;;;18.13;17.03;;;15.70;92.80;;;;;;5038564;28;20482;-70
2022/06/06 03:49:42;;;;;;;18.00;17.00;;;15.80;93.00;;;;;;5030120;28;20459;-70
2022/06/06 03:52:16;;;;;;;18.27;17.20;;;15.80;92.90;;;;;;5041861;28;20822;-70
2022/06/06 03:54:56;;;;;;;18.60;17.47;;;16.00;92.60;;;;;;5032212;28;20576;-68
2022/06/06 03:57:26;;;;;;;19.23;18.13;;;16.00;92.00;;;;;;5030750;28;20544;-68
2022/06/06 03:59:56;;;;;;;18.37;17.30;;;16.20;91.60;;;;;;5033578;28;20463;-68
2022/06/06 04:02:28;;;;;;;19.93;18.63;;;16.40;90.50;;;;;;5028919;28;20459;-68
2022/06/06 04:04:56;;;;;;;20.00;18.70;;;16.50;90.00;;;;;;5029489;28;20457;-68
2022/06/06 04:07:23;;;;;;;19.47;18.47;;;16.60;89.80;;;;;;5036004;28;20466;-68
2022/06/06 04:09:52;;;;;;;20.77;19.60;;;16.60;89.50;;;;;;5033156;28;20459;-70
2022/06/06 04:12:45;;;;;;;20.43;19.13;;;16.70;89.30;;;;;;5030562;28;20464;-71
2022/06/06 04:15:22;;;;;;;20.77;19.47;;;16.80;89.30;;;;;;5038262;28;21036;-71
2022/06/06 04:18:01;;;;;;;19.90;18.90;;;16.80;88.80;;;;;;5032772;28;20466;-70
2022/06/06 04:20:36;;;;;;;20.20;19.20;;;16.90;88.40;;;;;;5040221;28;20554;-70
2022/06/06 04:23:17;;;;;;;20.70;19.20;;;17.00;88.20;;;;;;5032632;28;20926;-71
2022/06/06 04:25:55;;;;;;;20.87;19.77;;;17.00;88.00;;;;;;5046126;28;20481;-70
2022/06/06 04:28:29;;;;;;;20.50;19.30;;;17.20;87.50;;;;;;5035150;28;20834;-70
2022/06/06 04:31:04;;;;;;;21.03;19.83;;;17.20;87.30;;;;;;5026775;28;20942;-70
2022/06/06 04:33:39;;;;;;;20.80;19.80;;;17.20;87.20;;;;;;5029897;28;20889;-71
2022/06/06 04:36:12;;;;;;;21.43;20.23;;;17.30;87.10;;;;;;5038499;28;20571;-70
2022/06/06 04:38:45;;;;;;;22.00;20.50;;;17.30;87.00;;;;;;5036947;28;20550;-70
2022/06/06 04:41:21;;;;;;;21.10;20.00;;;17.50;86.30;;;;;;5033319;28;20542;-71
2022/06/06 04:43:51;;;;;;;22.30;21.10;;;17.60;85.70;;;;;;5042156;28;20531;-70
2022/06/06 04:46:23;;;;;;;21.37;20.27;;;17.70;85.40;;;;;;5031691;28;20476;-70
2022/06/06 04:48:52;;;;;;;21.30;20.20;;;17.80;85.70;;;;;;5035611;28;20563;-70
2022/06/06 04:51:22;;;;;;;21.83;20.53;;;17.90;85.50;;;;;;5039075;28;20555;-75
2022/06/06 04:53:52;;;;;;;23.50;21.80;;;18.00;84.90;;;;;;5040313;28;20487;-70
2022/06/06 04:56:21;;;;;;;21.73;20.43;;;18.30;84.40;;;;;;5032251;28;20566;-70
2022/06/06 04:58:51;;;;;;;22.03;20.93;;;18.50;83.60;;;;;;5047733;28;20460;-70
2022/06/06 05:01:18;;;;;;;22.20;20.70;;;18.60;83.10;;;;;;5028515;28;20551;-70
2022/06/06 05:03:46;;;;;;;23.80;22.30;;;18.60;82.70;;;;;;5031852;28;20579;-70
2022/06/06 05:06:28;;;;;;;23.10;21.90;;;18.60;82.90;;;;;;5039203;28;20567;-72
2022/06/06 05:09:10;;;;;;;22.23;21.13;;;18.70;82.50;;;;;;5026119;28;20780;-70
2022/06/06 05:11:48;;;;;;;22.77;21.57;;;18.80;82.50;;;;;;5042491;28;20666;-72
2022/06/06 05:14:46;;;;;;;23.13;21.83;;;18.90;82.10;;;;;;5032854;28;20560;-70
2022/06/06 05:17:29;;;;;;;23.50;22.20;;;19.00;81.90;;;;;;5038748;28;20558;-71
2022/06/06 05:20:09;;;;;;;24.07;22.57;;;19.20;81.90;;;;;;5026410;28;20543;-70
2022/06/06 05:22:57;;;;;;;25.20;23.57;;;19.40;80.50;;;;;;5031647;28;20509;-73
2022/06/06 05:25:49;;;;;;;24.77;23.27;;;19.50;79.70;;;;;;5032217;28;20477;-70
2022/06/06 05:28:54;;;;;;;24.90;23.50;;;19.60;79.90;;;;;;5040121;28;20498;-72
2022/06/06 05:31:37;;;;;;;24.87;23.20;;;19.60;79.90;;;;;;5032211;28;20539;-69
2022/06/06 05:34:11;;;;;;;24.30;22.90;;;19.70;80.00;;;;;;5041169;28;20543;-68
2022/06/06 05:36:58;;;;;;;26.00;24.60;;;19.70;80.00;;;;;;5028982;28;20482;-68
2022/06/06 05:39:45;;;;;;;25.30;23.90;;;19.70;80.10;;;;;;5031390;28;20582;-69
2022/06/06 05:42:25;;;;;;;24.37;23.03;;;19.80;80.00;;;;;;5037062;28;20447;-68
2022/06/06 05:45:08;;;;;;;25.23;23.93;;;19.90;79.70;;;;;;5028827;28;21189;-69
2022/06/06 05:47:41;;;;;;;25.60;23.80;;;20.00;79.80;;;;;;5039633;28;20555;-68
2022/06/06 05:50:36;;;;;;;25.37;23.97;;;20.10;78.90;;;;;;5033616;28;20954;-68
2022/06/06 05:53:23;;;;;;;25.40;23.80;;;20.20;78.90;;;;;;5026832;28;20456;-70
2022/06/06 05:56:13;;;;;;;25.40;24.00;;;20.30;78.60;;;;;;5030461;28;20483;-71
2022/06/06 05:59:02;;;;;;;26.10;24.50;;;20.60;77.50;;;;;;5035973;28;20552;-69
2022/06/06 06:01:53;;;;;;;25.37;23.87;;;20.70;76.90;;;;;;5024748;28;20547;-69
2022/06/06 06:04:53;;;;;;;26.23;24.83;;;20.70;76.90;;;;;;5030611;28;20452;-68
2022/06/06 06:07:26;;;;;;;28.37;26.60;;;20.80;76.40;;;;;;5032424;28;20550;-68
2022/06/06 06:10:07;;;;;;;27.40;25.73;;;20.90;76.10;;;;;;5033843;28;20559;-69
2022/06/06 06:12:50;;;;;;;27.80;26.00;;;20.90;76.30;;;;;;5036918;28;20522;-69
2022/06/06 06:15:29;;;;;;;26.27;24.87;;;21.00;76.30;;;;;;5034732;28;20571;-67
2022/06/06 06:17:58;;;;;;;26.03;24.43;;;21.30;75.90;;;;;;5029458;28;20553;-67
2022/06/06 06:20:27;;;;;;;26.67;25.17;;;21.40;75.40;;;;;;5034524;28;20462;-66
2022/06/06 06:22:57;;;;;;;25.63;24.13;;;21.60;75.20;;;;;;5030817;28;20493;-66
2022/06/06 06:25:26;;;;;;;26.53;25.13;;;21.70;74.70;;;;;;5026426;28;20573;-66
2022/06/06 06:27:57;;;;;;;26.03;24.43;;;21.80;74.20;;;;;;5027482;28;20459;-67
2022/06/06 06:30:27;;;;;;;30.10;27.77;;;21.90;74.10;;;;;;5027175;28;20459;-66
2022/06/06 06:33:09;;;;;;;27.40;25.90;;;22.00;73.70;;;;;;5034686;28;20553;-67
2022/06/06 06:35:43;;;;;;;28.13;26.33;;;22.20;73.20;;;;;;5033176;28;20490;-66
2022/06/06 06:38:29;;;;;;;27.20;25.70;;;22.40;72.70;;;;;;5027308;28;20827;-67
2022/06/06 06:41:04;;;;;;;28.97;27.57;;;22.50;72.40;;;;;;5030846;28;20458;-67
2022/06/06 06:43:45;;;;;;;28.57;26.80;;;22.70;71.80;;;;;;5027953;28;20461;-67
2022/06/06 06:46:15;;;;;;;27.30;25.90;;;22.70;71.80;;;;;;5037885;28;20679;-67
2022/06/06 06:48:47;;;;;;;26.33;24.93;;;23.00;70.70;;;;;;5034192;28;20490;-66
2022/06/06 06:51:21;;;;;;;27.00;25.30;;;23.10;70.40;;;;;;5032782;28;20472;-66
2022/06/06 06:54:12;;;;;;;26.50;25.00;;;23.10;69.70;;;;;;5031481;28;20487;-66
2022/06/06 06:57:04;;;;;;;27.43;25.80;;;23.20;69.20;;;;;;5021595;28;20467;-67
2022/06/06 06:59:37;;;;;;;27.10;25.60;;;23.40;69.00;;;;;;5028959;28;22302;-67
2022/06/06 07:11:08;;;;;;;27.67;25.87;;;23.80;67.50;;;;;;5030990;28;21076;-67
2022/06/06 07:13:46;;;;;;;27.30;25.70;;;23.90;67.30;;;;;;5032588;28;20557;-67
2022/06/06 07:16:21;;;;;;;26.70;25.00;;;24.10;67.30;;;;;;5034309;28;20528;-69
2022/06/06 07:18:56;;;;;;;27.30;25.70;;;24.30;66.60;;;;;;5037143;28;21054;-68
2022/06/06 07:21:26;;;;;;;29.00;27.40;;;24.40;66.10;;;;;;5032593;28;20474;-68
2022/06/06 07:23:56;;;;;;;28.17;26.47;;;24.50;65.20;;;;;;5034543;28;20551;-68
2022/06/06 07:26:23;;;;;;;29.00;27.20;;;24.60;65.20;;;;;;5035978;28;20482;-68
2022/06/06 07:28:50;;;;;;;27.90;26.27;;;24.60;65.20;;;;;;5033662;28;20833;-68
2022/06/06 07:31:24;;;;;;;29.53;27.40;;;24.60;64.30;;;;;;5030744;28;20536;-69
2022/06/06 07:34:16;;;;;;;27.93;26.30;;;24.60;63.90;;;;;;5035643;28;20458;-69
2022/06/06 07:37:04;;;;;;;26.83;25.43;;;24.70;64.00;;;;;;5026321;28;20480;-69
2022/06/06 07:39:46;;;;;;;29.07;27.13;;;24.70;63.40;;;;;;5031354;28;20463;-69
2022/06/06 07:42:27;;;;;;;29.13;27.33;;;24.70;63.00;;;;;;5041282;28;20569;-68
2022/06/06 07:45:16;;;;;;;28.40;26.80;;;24.70;63.20;;;;;;5028667;28;20462;-69
2022/06/06 07:48:02;;;;;;;28.30;26.50;;;24.80;63.10;;;;;;5036574;28;20455;-73
2022/06/06 07:50:33;;;;;;;28.43;26.67;;;25.00;62.70;;;;;;5025531;28;20517;-72
2022/06/06 07:53:10;;;;;;;27.73;25.93;;;25.00;61.50;;;;;;5025011;28;20463;-72
2022/06/06 07:55:44;;;;;;;27.60;25.80;;;25.10;61.10;;;;;;5028299;28;20487;-76
2022/06/06 07:58:17;;;;;;;27.60;26.10;;;25.20;60.30;;;;;;5022023;28;20962;-71
2022/06/06 08:00:53;;;;;;;27.50;25.90;;;25.20;59.70;;;;;;5020017;28;20462;-69
2022/06/06 08:03:29;;;;;;;28.60;26.80;;;25.00;59.50;;;;;;5021414;28;20472;-68
2022/06/06 08:06:20;;;;;;;28.23;26.63;;;24.90;60.00;;;;;;5024392;28;20483;-67
2022/06/06 08:09:20;;;;;;;27.73;26.23;;;24.90;60.10;;;;;;5031557;28;20521;-69
2022/06/06 08:12:08;;;;;;;29.80;28.10;;;24.90;60.00;;;;;;5031084;28;20907;-70
2022/06/06 08:15:03;;;;;;;28.07;26.23;;;24.80;59.80;;;;;;5024634;28;20467;-70
2022/06/06 08:17:39;;;;;;;26.97;25.47;;;24.70;60.00;;;;;;5026719;28;20490;-71
2022/06/06 08:20:17;;;;;;;27.80;26.00;;;24.70;60.60;;;;;;5029320;28;20964;-69
2022/06/06 08:22:45;;;;;;;28.03;26.17;;;24.80;60.20;;;;;;5030530;28;20578;-68
2022/06/06 08:25:14;;;;;;;27.87;26.10;;;24.90;59.80;;;;;;5030566;28;20993;-68
2022/06/06 08:27:47;;;;;;;26.97;25.37;;;24.90;58.90;;;;;;5040883;28;20964;-68
2022/06/06 08:30:16;;;;;;;29.73;27.83;;;24.90;58.10;;;;;;5034052;28;20461;-70
2022/06/06 08:32:43;;;;;;;27.73;26.13;;;25.00;58.00;;;;;;5034340;28;20546;-68
2022/06/06 08:35:11;;;;;;;27.40;25.80;;;25.00;57.90;;;;;;5028074;28;20554;-70
2022/06/06 08:37:51;;;;;;;27.77;26.00;;;25.00;58.20;;;;;;5028969;28;21147;-70
2022/06/06 08:40:44;;;;;;;27.67;25.97;;;24.90;59.00;;;;;;5031897;28;20529;-71
2022/06/06 08:43:19;;;;;;;25.97;24.57;;;25.00;57.50;;;;;;5024655;28;20467;-71
2022/06/06 08:45:52;;;;;;;27.97;26.37;;;24.80;56.70;;;;;;5031955;28;20484;-70
2022/06/06 08:48:41;;;;;;;26.47;24.97;;;24.40;57.50;;;;;;5031760;28;20553;-71
2022/06/06 08:51:24;;;;;;;25.90;24.40;;;24.40;57.70;;;;;;5023940;28;21038;-76
2022/06/06 08:54:21;;;;;;;26.63;25.13;;;24.40;58.20;;;;;;5032185;28;20550;-71
2022/06/06 08:57:07;;;;;;;27.00;25.40;;;24.80;57.30;;;;;;5021566;28;20889;-72
2022/06/06 09:00:04;;;;;;;27.00;25.50;;;25.20;57.10;;;;;;5025855;28;21036;-73
2022/06/06 09:03:08;;;;;;;27.23;25.63;;;25.50;55.60;;;;;;5029376;28;20452;-74
2022/06/06 09:06:11;;;;;;;29.03;27.40;;;25.50;54.90;;;;;;5019969;28;22897;-75
2022/06/06 09:09:15;;;;;;;27.03;25.53;;;25.60;54.90;;;;;;5028635;28;20577;-71
2022/06/06 09:12:16;;;;;;;26.50;25.00;;;25.50;54.90;;;;;;5028947;28;20471;-75
2022/06/06 09:15:24;;;;;;;26.87;25.27;;;25.60;54.50;;;;;;5031660;28;20475;-75
2022/06/06 09:18:22;;;;;;;26.83;25.33;;;25.20;53.20;;;;;;5023585;28;20497;-71
2022/06/06 09:21:22;;;;;;;27.37;25.87;;;24.80;54.70;;;;;;5026973;28;20550;-72
2022/06/06 09:24:37;;;;;;;26.13;24.40;;;24.90;53.90;;;;;;5025268;28;20453;-72
2022/06/06 09:27:47;;;;;;;25.93;24.43;;;24.70;54.20;;;;;;5032721;28;20471;-76
2022/06/06 09:30:39;;;;;;;25.90;24.50;;;24.10;55.30;;;;;;5034926;28;20460;-71
2022/06/06 09:33:50;;;;;;;27.20;25.60;;;24.20;55.90;;;;;;5023862;28;20467;-71
2022/06/06 09:36:24;;;;;;;28.17;26.00;;;24.40;55.50;;;;;;5027013;28;20539;-71
2022/06/06 09:39:08;;;;;;;28.30;26.70;;;24.70;54.70;;;;;;5027746;28;20540;-72
2022/06/06 09:41:38;;;;;;;25.93;24.43;;;24.90;54.50;;;;;;5034714;28;20469;-73
2022/06/06 09:44:17;;;;;;;26.50;25.10;;;25.00;53.40;;;;;;5029916;28;20553;-74
2022/06/06 09:47:10;;;;;;;26.90;25.30;;;25.00;53.80;;;;;;5025958;28;20490;-71
2022/06/06 09:50:31;;;;;;;27.67;26.17;;;25.10;53.20;;;;;;5028143;28;20895;-72
2022/06/06 09:53:40;;;;;;;25.67;24.13;;;25.10;53.70;;;;;;5031331;28;20920;-72
2022/06/06 09:59:45;;;;;;;28.60;26.90;;;24.60;54.40;;;;;;5021644;28;20463;-72
2022/06/06 10:03:00;;;;;;;25.93;24.53;;;24.30;53.80;;;;;;5025626;28;20580;-72
2022/06/06 10:06:05;;;;;;;26.80;25.30;;;24.40;54.70;;;;;;5028223;28;20569;-75
2022/06/06 10:08:59;;;;;;;27.80;25.40;;;24.70;52.90;;;;;;5027949;28;20454;-72
2022/06/06 10:11:59;;;;;;;27.40;25.80;;;24.90;52.10;;;;;;5025746;28;20600;-71
2022/06/06 10:14:59;;;;;;;26.50;25.00;;;25.00;51.30;;;;;;5029461;28;20457;-70
2022/06/06 10:17:43;;;;;;;27.40;25.90;;;24.50;52.30;;;;;;5021448;28;20572;-75
2022/06/06 10:20:38;;;;;;;30.20;28.80;;;24.20;53.30;;;;;;5022800;28;20459;-71
2022/06/06 10:23:26;;;;;;;28.73;26.70;;;24.10;54.60;;;;;;5019276;28;20465;-72
2022/06/06 10:26:16;;;;;;;28.07;26.47;;;24.50;54.80;;;;;;5022619;28;20577;-74
2022/06/06 10:29:27;;;;;;;28.60;27.00;;;24.90;53.60;;;;;;5023995;28;20456;-71
2022/06/06 10:32:16;;;;;;;27.10;25.60;;;25.60;53.00;;;;;;5003911;28;20517;-71
2022/06/06 10:35:07;;;;;;;28.17;26.57;;;25.90;51.80;;;;;;5028242;28;22198;-72
2022/06/06 10:37:50;;;;;;;27.97;26.37;;;26.20;51.70;;;;;;5027911;28;20476;-71
2022/06/06 10:40:48;;;;;;;27.47;25.97;;;26.30;51.50;;;;;;5034680;28;20456;-74
2022/06/06 10:43:56;;;;;;;29.27;27.67;;;26.60;51.50;;;;;;5023075;28;20562;-69
2022/06/06 10:46:32;;;;;;;27.90;26.20;;;26.60;50.50;;;;;;5034301;28;20477;-69
2022/06/06 10:49:17;;;;;;;27.67;26.00;;;26.70;51.20;;;;;;5029737;28;20460;-69
2022/06/06 10:52:23;;;;;;;29.17;27.47;;;26.80;51.20;;;;;;5030922;28;20547;-72
2022/06/06 10:55:09;;;;;;;27.77;26.07;;;27.00;50.90;;;;;;5028047;28;20544;-68
2022/06/06 10:58:00;;;;;;;27.20;25.67;;;27.00;50.40;;;;;;5027973;28;21155;-69
2022/06/06 11:00:51;;;;;;;26.67;25.17;;;27.00;50.40;;;;;;5035635;28;20569;-69
2022/06/06 11:03:41;;;;;;;29.30;27.73;;;26.80;50.60;;;;;;5032229;28;20457;-70
2022/06/06 11:06:43;;;;;;;27.40;25.80;;;26.80;49.40;;;;;;5029409;28;20564;-70
2022/06/06 11:09:49;;;;;;;28.27;26.57;;;26.70;49.60;;;;;;5039853;28;20490;-69
2022/06/06 11:12:54;;;;;;;27.47;25.93;;;26.70;49.10;;;;;;5026728;28;20549;-68
2022/06/06 11:15:21;;;;;;;27.93;26.33;;;26.80;49.60;;;;;;5026665;28;20484;-68
2022/06/06 11:18:14;;;;;;;26.70;24.97;;;26.70;49.50;;;;;;5027477;28;20861;-68
2022/06/06 11:21:19;;;;;;;27.00;25.40;;;26.80;49.40;;;;;;5036667;28;20547;-68
2022/06/06 11:23:52;;;;;;;26.80;25.20;;;26.60;49.70;;;;;;5041075;28;21277;-68
2022/06/06 11:26:50;;;;;;;27.97;26.20;;;26.10;50.40;;;;;;5031085;28;21691;-68
2022/06/06 11:29:37;;;;;;;27.70;25.93;;;25.90;51.40;;;;;;5030104;28;20491;-68
2022/06/06 11:32:28;;;;;;;26.80;25.30;;;25.60;51.40;;;;;;5033129;28;20521;-68
2022/06/06 11:35:30;;;;;;;27.23;25.73;;;25.30;51.70;;;;;;5023453;28;20478;-68
2022/06/06 11:38:36;;;;;;;28.80;27.13;;;25.30;52.30;;;;;;5028547;28;20487;-68
2022/06/06 11:41:22;;;;;;;28.33;26.73;;;25.20;52.10;;;;;;5017762;28;20560;-68
2022/06/06 11:44:16;;;;;;;29.07;27.47;;;25.20;52.30;;;;;;5025979;28;20575;-72
2022/06/06 11:47:16;;;;;;;28.40;26.70;;;25.50;52.20;;;;;;5013076;28;21251;-71
2022/06/06 11:50:21;;;;;;;26.47;24.93;;;25.90;51.50;;;;;;5031811;28;20468;-71
2022/06/06 11:53:26;;;;;;;26.43;24.70;;;26.30;50.60;;;;;;5024810;28;20460;-70
2022/06/06 11:56:10;;;;;;;27.50;26.00;;;26.50;50.40;;;;;;5018778;28;20559;-70
2022/06/06 11:59:09;;;;;;;27.20;25.70;;;26.60;51.00;;;;;;5029850;28;20490;-72
2022/06/06 12:02:15;;;;;;;26.60;25.10;;;26.60;50.30;;;;;;5022947;28;20461;-68
2022/06/06 12:05:20;;;;;;;26.33;24.60;;;26.70;50.50;;;;;;5029602;28;20481;-69
2022/06/06 12:08:26;;;;;;;29.03;27.10;;;26.70;49.30;;;;;;5023835;28;20457;-68
2022/06/06 12:11:23;;;;;;;27.43;25.67;;;26.90;48.90;;;;;;5028670;28;20562;-68
2022/06/06 12:14:14;;;;;;;25.93;24.43;;;26.90;48.70;;;;;;5032070;28;20524;-69
2022/06/06 12:16:53;;;;;;;26.93;25.37;;;26.80;48.90;;;;;;5037861;28;20482;-69
2022/06/06 12:19:37;;;;;;;35.80;33.90;;;26.80;49.00;;;;;;5030672;28;21012;-68
2022/06/06 12:22:35;;;;;;;25.70;24.20;;;26.80;49.00;;;;;;5040116;28;20557;-69
2022/06/06 12:25:47;;;;;;;26.93;25.23;;;26.60;49.10;;;;;;5018958;28;20553;-68
2022/06/06 12:28:52;;;;;;;26.40;24.90;;;26.30;48.40;;;;;;4974566;28;20546;-68
2022/06/06 12:31:46;;;;;;;27.27;25.67;;;26.30;49.20;;;;;;5032834;28;20536;-70
2022/06/06 12:34:19;;;;;;;26.23;24.53;;;26.50;49.20;;;;;;5025520;28;21044;-68
2022/06/06 12:36:53;;;;;;;26.60;25.10;;;26.70;48.40;;;;;;5032305;28;20488;-68
2022/06/06 12:39:34;;;;;;;27.03;25.53;;;27.20;46.60;;;;;;5039479;28;21022;-69
2022/06/06 12:42:11;;;;;;;27.30;25.70;;;27.40;46.40;;;;;;5034987;28;20461;-69
2022/06/06 12:45:17;;;;;;;27.27;25.77;;;27.10;45.90;;;;;;5030040;28;20468;-72
2022/06/06 12:48:09;;;;;;;27.00;25.50;;;27.00;46.80;;;;;;4972149;28;20542;-70
2022/06/06 12:50:50;;;;;;;26.63;25.17;;;27.20;48.30;;;;;;5031864;28;20477;-70
2022/06/06 12:53:34;;;;;;;31.00;29.30;;;27.30;47.50;;;;;;5029972;28;20494;-71
2022/06/06 12:56:23;;;;;;;26.93;25.50;;;27.30;47.20;;;;;;5028152;28;20508;-70
2022/06/06 12:59:09;;;;;;;26.13;24.73;;;27.20;47.40;;;;;;5037222;28;20477;-68
2022/06/06 13:01:46;;;;;;;27.50;25.93;;;27.10;46.60;;;;;;5030516;28;20563;-68
2022/06/06 13:04:35;;;;;;;27.20;25.70;;;27.00;46.30;;;;;;5037511;28;20997;-68
2022/06/06 13:07:14;;;;;;;27.67;26.07;;;27.00;46.20;;;;;;5031738;28;20922;-68
2022/06/06 13:10:05;;;;;;;28.00;26.40;;;26.60;47.20;;;;;;5029941;28;20555;-68
2022/06/06 13:12:49;;;;;;;27.90;26.33;;;26.40;47.50;;;;;;5032457;28;20544;-68
2022/06/06 13:15:23;;;;;;;27.77;26.17;;;26.10;48.20;;;;;;5027829;28;20563;-68
2022/06/06 13:18:11;;;;;;;27.70;26.10;;;25.30;49.90;;;;;;5034167;28;20536;-68
2022/06/06 13:20:43;;;;;;;26.27;24.87;;;25.20;50.10;;;;;;5032156;28;20987;-68
2022/06/06 13:23:29;;;;;;;28.37;26.47;;;24.90;51.20;;;;;;5028962;28;20485;-68
2022/06/06 13:26:25;;;;;;;29.03;27.43;;;24.70;51.30;;;;;;5037844;28;20865;-70
2022/06/06 13:28:55;;;;;;;28.77;27.17;;;24.40;51.30;;;;;;5039659;28;20562;-70
2022/06/06 13:31:33;;;;;;;28.03;26.53;;;24.30;52.00;;;;;;5030148;28;20827;-70
2022/06/06 13:34:22;;;;;;;32.70;31.00;;;24.20;53.10;;;;;;5035283;28;20844;-70
2022/06/06 13:37:03;;;;;;;28.60;26.90;;;24.30;52.60;;;;;;5026944;28;20483;-71
2022/06/06 13:39:48;;;;;;;26.73;25.20;;;23.90;53.00;;;;;;5028060;28;20832;-70
2022/06/06 13:42:24;;;;;;;26.70;25.10;;;23.80;53.80;;;;;;5033213;28;20593;-70
2022/06/06 13:45:11;;;;;;;27.10;25.50;;;23.70;54.00;;;;;;5033079;28;20926;-70
2022/06/06 13:48:06;;;;;;;29.37;27.57;;;23.60;54.40;;;;;;5033257;28;20551;-70
2022/06/06 13:50:38;;;;;;;26.03;24.63;;;23.30;55.20;;;;;;5028115;28;20468;-74
2022/06/06 13:53:29;;;;;;;27.17;25.67;;;23.30;55.30;;;;;;5030753;28;20465;-70
2022/06/06 13:56:15;;;;;;;26.07;24.67;;;23.30;55.60;;;;;;5031547;28;20483;-72